sensor_id;sensor_type;location;lat;lon;timestamp;P1;durP1;ratioP1;P2;durP2;ratioP2
24799;SDS011;12897;50.812;4.430;2023-02-04T00:00:29;34.25;;;19.27;;
24799;SDS011;12897;50.812;4.430;2023-02-04T00:02:58;42.20;;;20.43;;
24799;SDS011;12897;50.812;4.430;2023-02-04T00:05:26;39.67;;;19.45;;
24799;SDS011;12897;50.812;4.430;2023-02-04T00:07:54;47.40;;;20.20;;
24799;SDS011;12897;50.812;4.430;2023-02-04T00:10:23;39.38;;;20.70;;
24799;SDS011;12897;50.812;4.430;2023-02-04T00:12:51;43.42;;;19.70;;
24799;SDS011;12897;50.812;4.430;2023-02-04T00:15:18;39.35;;;20.15;;
24799;SDS011;12897;50.812;4.430;2023-02-04T00:17:46;41.30;;;19.65;;
24799;SDS011;12897;50.812;4.430;2023-02-04T00:20:15;34.67;;;18.67;;
24799;SDS011;12897;50.812;4.430;2023-02-04T00:22:44;33.00;;;17.87;;
24799;SDS011;12897;50.812;4.430;2023-02-04T00:25:13;41.23;;;18.42;;
24799;SDS011;12897;50.812;4.430;2023-02-04T00:27:40;33.80;;;18.37;;
24799;SDS011;12897;50.812;4.430;2023-02-04T00:30:08;34.80;;;19.25;;
24799;SDS011;12897;50.812;4.430;2023-02-04T00:32:38;32.95;;;17.52;;
24799;SDS011;12897;50.812;4.430;2023-02-04T00:35:06;36.15;;;17.57;;
24799;SDS011;12897;50.812;4.430;2023-02-04T00:37:34;38.20;;;18.92;;
24799;SDS011;12897;50.812;4.430;2023-02-04T00:40:01;35.08;;;18.67;;
24799;SDS011;12897;50.812;4.430;2023-02-04T00:42:29;40.45;;;18.62;;
24799;SDS011;12897;50.812;4.430;2023-02-04T00:44:56;28.40;;;16.87;;
24799;SDS011;12897;50.812;4.430;2023-02-04T00:47:24;39.48;;;17.45;;
24799;SDS011;12897;50.812;4.430;2023-02-04T00:49:52;31.97;;;18.23;;
24799;SDS011;12897;50.812;4.430;2023-02-04T00:52:19;37.95;;;16.85;;
24799;SDS011;12897;50.812;4.430;2023-02-04T00:54:49;32.08;;;17.62;;
24799;SDS011;12897;50.812;4.430;2023-02-04T00:57:16;31.68;;;17.60;;
24799;SDS011;12897;50.812;4.430;2023-02-04T00:59:46;33.50;;;17.77;;
24799;SDS011;12897;50.812;4.430;2023-02-04T01:02:13;33.90;;;16.48;;
24799;SDS011;12897;50.812;4.430;2023-02-04T01:04:41;37.67;;;17.17;;
24799;SDS011;12897;50.812;4.430;2023-02-04T01:07:09;45.05;;;17.23;;
24799;SDS011;12897;50.812;4.430;2023-02-04T01:09:36;33.90;;;16.20;;
24799;SDS011;12897;50.812;4.430;2023-02-04T01:12:04;33.83;;;16.57;;
24799;SDS011;12897;50.812;4.430;2023-02-04T01:14:31;31.35;;;17.15;;
24799;SDS011;12897;50.812;4.430;2023-02-04T01:16:59;34.67;;;17.45;;
24799;SDS011;12897;50.812;4.430;2023-02-04T01:19:27;37.17;;;18.20;;
24799;SDS011;12897;50.812;4.430;2023-02-04T01:21:54;41.10;;;18.02;;
24799;SDS011;12897;50.812;4.430;2023-02-04T01:24:22;35.70;;;18.85;;
24799;SDS011;12897;50.812;4.430;2023-02-04T01:26:49;36.88;;;20.10;;
24799;SDS011;12897;50.812;4.430;2023-02-04T01:29:17;37.60;;;19.92;;
24799;SDS011;12897;50.812;4.430;2023-02-04T01:31:45;43.02;;;21.80;;
24799;SDS011;12897;50.812;4.430;2023-02-04T01:34:12;37.33;;;20.70;;
24799;SDS011;12897;50.812;4.430;2023-02-04T01:36:40;35.90;;;21.70;;
24799;SDS011;12897;50.812;4.430;2023-02-04T01:39:10;39.85;;;23.25;;
24799;SDS011;12897;50.812;4.430;2023-02-04T01:41:38;42.23;;;23.55;;
24799;SDS011;12897;50.812;4.430;2023-02-04T01:44:06;44.05;;;23.05;;
24799;SDS011;12897;50.812;4.430;2023-02-04T01:46:34;40.88;;;21.82;;
24799;SDS011;12897;50.812;4.430;2023-02-04T01:49:03;41.15;;;21.45;;
24799;SDS011;12897;50.812;4.430;2023-02-04T01:51:31;38.30;;;22.75;;
24799;SDS011;12897;50.812;4.430;2023-02-04T01:53:59;43.15;;;22.75;;
24799;SDS011;12897;50.812;4.430;2023-02-04T01:56:28;41.80;;;23.75;;
24799;SDS011;12897;50.812;4.430;2023-02-04T01:58:57;45.48;;;24.60;;
24799;SDS011;12897;50.812;4.430;2023-02-04T02:02:35;50.30;;;25.95;;
24799;SDS011;12897;50.812;4.430;2023-02-04T02:04:13;44.85;;;26.15;;
24799;SDS011;12897;50.812;4.430;2023-02-04T02:06:44;49.38;;;27.27;;
24799;SDS011;12897;50.812;4.430;2023-02-04T02:09:16;45.63;;;27.48;;
24799;SDS011;12897;50.812;4.430;2023-02-04T02:11:43;49.67;;;26.42;;
24799;SDS011;12897;50.812;4.430;2023-02-04T02:14:11;48.83;;;26.20;;
24799;SDS011;12897;50.812;4.430;2023-02-04T02:16:39;45.48;;;25.62;;
24799;SDS011;12897;50.812;4.430;2023-02-04T02:19:07;47.88;;;25.30;;
24799;SDS011;12897;50.812;4.430;2023-02-04T02:26:52;42.48;;;23.00;;
24799;SDS011;12897;50.812;4.430;2023-02-04T02:29:22;41.08;;;23.52;;
24799;SDS011;12897;50.812;4.430;2023-02-04T02:31:50;46.20;;;24.12;;
24799;SDS011;12897;50.812;4.430;2023-02-04T02:34:18;45.83;;;25.32;;
24799;SDS011;12897;50.812;4.430;2023-02-04T02:36:55;40.85;;;24.95;;
24799;SDS011;12897;50.812;4.430;2023-02-04T02:39:17;50.00;;;26.00;;
24799;SDS011;12897;50.812;4.430;2023-02-04T02:41:45;49.60;;;25.32;;
24799;SDS011;12897;50.812;4.430;2023-02-04T02:44:13;48.80;;;26.33;;
24799;SDS011;12897;50.812;4.430;2023-02-04T02:46:42;53.73;;;28.87;;
24799;SDS011;12897;50.812;4.430;2023-02-04T02:49:15;54.55;;;28.07;;
24799;SDS011;12897;50.812;4.430;2023-02-04T02:51:40;50.45;;;28.00;;
24799;SDS011;12897;50.812;4.430;2023-02-04T02:54:25;43.50;;;25.27;;
24799;SDS011;12897;50.812;4.430;2023-02-04T02:56:54;42.55;;;25.23;;
24799;SDS011;12897;50.812;4.430;2023-02-04T02:59:24;45.50;;;25.85;;
24799;SDS011;12897;50.812;4.430;2023-02-04T03:01:53;45.95;;;25.43;;
24799;SDS011;12897;50.812;4.430;2023-02-04T03:04:25;42.65;;;25.20;;
24799;SDS011;12897;50.812;4.430;2023-02-04T03:06:57;44.10;;;24.07;;
24799;SDS011;12897;50.812;4.430;2023-02-04T03:09:25;37.35;;;21.68;;
24799;SDS011;12897;50.812;4.430;2023-02-04T03:11:55;37.55;;;22.35;;
24799;SDS011;12897;50.812;4.430;2023-02-04T03:14:22;40.92;;;21.57;;
24799;SDS011;12897;50.812;4.430;2023-02-04T03:16:54;40.63;;;21.10;;
24799;SDS011;12897;50.812;4.430;2023-02-04T03:19:25;42.13;;;21.90;;
24799;SDS011;12897;50.812;4.430;2023-02-04T03:21:53;36.08;;;21.60;;
24799;SDS011;12897;50.812;4.430;2023-02-04T03:24:25;35.58;;;20.88;;
24799;SDS011;12897;50.812;4.430;2023-02-04T03:26:52;35.15;;;21.42;;
24799;SDS011;12897;50.812;4.430;2023-02-04T03:29:20;37.38;;;20.23;;
24799;SDS011;12897;50.812;4.430;2023-02-04T03:31:48;37.42;;;21.15;;
24799;SDS011;12897;50.812;4.430;2023-02-04T03:34:19;35.38;;;21.00;;
24799;SDS011;12897;50.812;4.430;2023-02-04T03:36:47;34.53;;;20.02;;
24799;SDS011;12897;50.812;4.430;2023-02-04T03:39:15;33.25;;;20.48;;
24799;SDS011;12897;50.812;4.430;2023-02-04T03:41:42;30.82;;;20.37;;
24799;SDS011;12897;50.812;4.430;2023-02-04T03:44:11;30.05;;;19.27;;
24799;SDS011;12897;50.812;4.430;2023-02-04T03:46:38;32.40;;;21.42;;
24799;SDS011;12897;50.812;4.430;2023-02-04T03:49:06;29.40;;;18.85;;
24799;SDS011;12897;50.812;4.430;2023-02-04T03:51:33;24.63;;;17.70;;
24799;SDS011;12897;50.812;4.430;2023-02-04T03:57:44;25.52;;;16.57;;
24799;SDS011;12897;50.812;4.430;2023-02-04T03:59:59;27.95;;;17.00;;
24799;SDS011;12897;50.812;4.430;2023-02-04T04:02:26;27.77;;;17.07;;
24799;SDS011;12897;50.812;4.430;2023-02-04T04:04:54;25.88;;;16.90;;
24799;SDS011;12897;50.812;4.430;2023-02-04T04:07:21;24.60;;;15.95;;
24799;SDS011;12897;50.812;4.430;2023-02-04T04:09:49;24.27;;;15.28;;
24799;SDS011;12897;50.812;4.430;2023-02-04T04:12:17;23.47;;;15.08;;
24799;SDS011;12897;50.812;4.430;2023-02-04T04:14:44;19.85;;;12.63;;
24799;SDS011;12897;50.812;4.430;2023-02-04T04:17:12;20.35;;;12.73;;
24799;SDS011;12897;50.812;4.430;2023-02-04T04:19:39;18.60;;;11.33;;
24799;SDS011;12897;50.812;4.430;2023-02-04T04:22:08;20.13;;;11.60;;
24799;SDS011;12897;50.812;4.430;2023-02-04T04:24:38;15.40;;;10.23;;
24799;SDS011;12897;50.812;4.430;2023-02-04T04:27:06;12.75;;;9.20;;
24799;SDS011;12897;50.812;4.430;2023-02-04T04:29:33;14.28;;;9.88;;
24799;SDS011;12897;50.812;4.430;2023-02-04T04:32:01;22.02;;;10.08;;
24799;SDS011;12897;50.812;4.430;2023-02-04T04:34:30;15.18;;;9.23;;
24799;SDS011;12897;50.812;4.430;2023-02-04T04:36:57;14.50;;;9.38;;
24799;SDS011;12897;50.812;4.430;2023-02-04T04:39:26;16.43;;;9.47;;
24799;SDS011;12897;50.812;4.430;2023-02-04T04:41:54;12.80;;;9.08;;
24799;SDS011;12897;50.812;4.430;2023-02-04T04:44:22;14.23;;;9.15;;
24799;SDS011;12897;50.812;4.430;2023-02-04T04:46:51;14.95;;;8.93;;
24799;SDS011;12897;50.812;4.430;2023-02-04T04:49:18;13.28;;;8.68;;
24799;SDS011;12897;50.812;4.430;2023-02-04T04:51:46;14.60;;;8.38;;
24799;SDS011;12897;50.812;4.430;2023-02-04T04:54:13;14.13;;;7.42;;
24799;SDS011;12897;50.812;4.430;2023-02-04T04:56:41;12.07;;;8.60;;
24799;SDS011;12897;50.812;4.430;2023-02-04T04:59:09;15.40;;;9.28;;
24799;SDS011;12897;50.812;4.430;2023-02-04T05:01:36;14.75;;;8.95;;
24799;SDS011;12897;50.812;4.430;2023-02-04T05:04:04;12.85;;;8.75;;
24799;SDS011;12897;50.812;4.430;2023-02-04T05:06:32;12.90;;;9.10;;
24799;SDS011;12897;50.812;4.430;2023-02-04T05:09:00;14.70;;;8.90;;
24799;SDS011;12897;50.812;4.430;2023-02-04T05:11:27;13.45;;;9.18;;
24799;SDS011;12897;50.812;4.430;2023-02-04T05:13:55;14.53;;;8.83;;
24799;SDS011;12897;50.812;4.430;2023-02-04T05:16:23;13.20;;;9.23;;
24799;SDS011;12897;50.812;4.430;2023-02-04T05:18:55;15.78;;;9.75;;
24799;SDS011;12897;50.812;4.430;2023-02-04T05:21:19;17.62;;;10.35;;
24799;SDS011;12897;50.812;4.430;2023-02-04T05:23:48;15.30;;;10.40;;
24799;SDS011;12897;50.812;4.430;2023-02-04T05:26:16;15.38;;;9.65;;
24799;SDS011;12897;50.812;4.430;2023-02-04T05:28:44;19.25;;;11.08;;
24799;SDS011;12897;50.812;4.430;2023-02-04T05:31:11;18.48;;;11.48;;
24799;SDS011;12897;50.812;4.430;2023-02-04T05:33:39;20.10;;;11.63;;
24799;SDS011;12897;50.812;4.430;2023-02-04T05:36:06;20.62;;;11.28;;
24799;SDS011;12897;50.812;4.430;2023-02-04T05:38:34;15.23;;;11.08;;
24799;SDS011;12897;50.812;4.430;2023-02-04T05:41:01;16.60;;;10.95;;
24799;SDS011;12897;50.812;4.430;2023-02-04T05:43:29;17.62;;;11.18;;
24799;SDS011;12897;50.812;4.430;2023-02-04T05:45:56;19.00;;;11.90;;
24799;SDS011;12897;50.812;4.430;2023-02-04T05:48:24;16.50;;;11.38;;
24799;SDS011;12897;50.812;4.430;2023-02-04T05:50:51;19.42;;;11.85;;
24799;SDS011;12897;50.812;4.430;2023-02-04T05:53:21;20.13;;;12.13;;
24799;SDS011;12897;50.812;4.430;2023-02-04T05:55:48;22.10;;;12.25;;
24799;SDS011;12897;50.812;4.430;2023-02-04T05:58:16;24.63;;;12.18;;
24799;SDS011;12897;50.812;4.430;2023-02-04T06:00:43;20.72;;;12.37;;
24799;SDS011;12897;50.812;4.430;2023-02-04T06:03:11;21.77;;;12.63;;
24799;SDS011;12897;50.812;4.430;2023-02-04T06:05:39;22.93;;;13.13;;
24799;SDS011;12897;50.812;4.430;2023-02-04T06:08:08;23.32;;;12.98;;
24799;SDS011;12897;50.812;4.430;2023-02-04T06:10:36;22.02;;;13.10;;
24799;SDS011;12897;50.812;4.430;2023-02-04T06:13:03;20.32;;;12.85;;
24799;SDS011;12897;50.812;4.430;2023-02-04T06:15:31;25.12;;;13.18;;
24799;SDS011;12897;50.812;4.430;2023-02-04T06:17:58;22.62;;;12.37;;
24799;SDS011;12897;50.812;4.430;2023-02-04T06:20:26;21.37;;;13.05;;
24799;SDS011;12897;50.812;4.430;2023-02-04T06:22:53;21.40;;;13.13;;
24799;SDS011;12897;50.812;4.430;2023-02-04T06:25:21;22.48;;;13.35;;
24799;SDS011;12897;50.812;4.430;2023-02-04T06:27:49;23.70;;;13.90;;
24799;SDS011;12897;50.812;4.430;2023-02-04T06:30:17;22.82;;;13.75;;
24799;SDS011;12897;50.812;4.430;2023-02-04T06:32:44;28.55;;;14.53;;
24799;SDS011;12897;50.812;4.430;2023-02-04T06:35:12;27.10;;;13.93;;
24799;SDS011;12897;50.812;4.430;2023-02-04T06:37:43;27.37;;;14.23;;
24799;SDS011;12897;50.812;4.430;2023-02-04T06:40:10;25.25;;;14.55;;
24799;SDS011;12897;50.812;4.430;2023-02-04T06:42:38;24.82;;;15.63;;
24799;SDS011;12897;50.812;4.430;2023-02-04T06:45:06;26.90;;;14.43;;
24799;SDS011;12897;50.812;4.430;2023-02-04T06:47:33;26.33;;;14.75;;
24799;SDS011;12897;50.812;4.430;2023-02-04T06:50:01;31.40;;;14.87;;
24799;SDS011;12897;50.812;4.430;2023-02-04T06:52:29;26.12;;;14.95;;
24799;SDS011;12897;50.812;4.430;2023-02-04T06:54:56;29.25;;;16.05;;
24799;SDS011;12897;50.812;4.430;2023-02-04T06:57:24;28.77;;;17.00;;
24799;SDS011;12897;50.812;4.430;2023-02-04T06:59:52;46.05;;;24.85;;
24799;SDS011;12897;50.812;4.430;2023-02-04T07:02:19;34.45;;;17.52;;
24799;SDS011;12897;50.812;4.430;2023-02-04T07:04:47;31.90;;;17.90;;
24799;SDS011;12897;50.812;4.430;2023-02-04T07:07:15;33.92;;;17.20;;
24799;SDS011;12897;50.812;4.430;2023-02-04T07:09:42;33.78;;;18.37;;
24799;SDS011;12897;50.812;4.430;2023-02-04T07:12:10;31.97;;;18.07;;
24799;SDS011;12897;50.812;4.430;2023-02-04T07:14:37;29.30;;;17.23;;
24799;SDS011;12897;50.812;4.430;2023-02-04T07:17:05;31.68;;;17.75;;
24799;SDS011;12897;50.812;4.430;2023-02-04T07:19:32;33.65;;;17.55;;
24799;SDS011;12897;50.812;4.430;2023-02-04T07:22:01;34.90;;;17.48;;
24799;SDS011;12897;50.812;4.430;2023-02-04T07:24:31;33.25;;;17.20;;
24799;SDS011;12897;50.812;4.430;2023-02-04T07:26:58;30.08;;;16.80;;
24799;SDS011;12897;50.812;4.430;2023-02-04T07:29:27;29.82;;;16.25;;
24799;SDS011;12897;50.812;4.430;2023-02-04T07:31:54;27.48;;;16.02;;
24799;SDS011;12897;50.812;4.430;2023-02-04T07:34:22;30.55;;;16.52;;
24799;SDS011;12897;50.812;4.430;2023-02-04T07:36:49;34.05;;;15.90;;
24799;SDS011;12897;50.812;4.430;2023-02-04T07:39:17;33.10;;;17.00;;
24799;SDS011;12897;50.812;4.430;2023-02-04T07:41:44;32.38;;;16.87;;
24799;SDS011;12897;50.812;4.430;2023-02-04T07:44:12;34.13;;;16.32;;
24799;SDS011;12897;50.812;4.430;2023-02-04T07:46:39;28.67;;;16.05;;
24799;SDS011;12897;50.812;4.430;2023-02-04T07:49:07;24.45;;;14.80;;
24799;SDS011;12897;50.812;4.430;2023-02-04T07:51:34;26.57;;;14.90;;
24799;SDS011;12897;50.812;4.430;2023-02-04T07:54:02;25.12;;;13.88;;
24799;SDS011;12897;50.812;4.430;2023-02-04T07:56:29;22.45;;;13.40;;
24799;SDS011;12897;50.812;4.430;2023-02-04T07:58:57;26.05;;;14.25;;
24799;SDS011;12897;50.812;4.430;2023-02-04T08:01:25;23.60;;;13.43;;
24799;SDS011;12897;50.812;4.430;2023-02-04T08:03:52;20.60;;;13.03;;
24799;SDS011;12897;50.812;4.430;2023-02-04T08:06:20;23.10;;;13.13;;
24799;SDS011;12897;50.812;4.430;2023-02-04T08:08:47;23.98;;;12.65;;
24799;SDS011;12897;50.812;4.430;2023-02-04T08:11:15;20.10;;;11.97;;
24799;SDS011;12897;50.812;4.430;2023-02-04T08:13:42;25.60;;;13.93;;
24799;SDS011;12897;50.812;4.430;2023-02-04T08:16:11;23.87;;;13.63;;
24799;SDS011;12897;50.812;4.430;2023-02-04T08:18:39;27.10;;;13.25;;
24799;SDS011;12897;50.812;4.430;2023-02-04T08:21:06;30.02;;;13.62;;
24799;SDS011;12897;50.812;4.430;2023-02-04T08:23:34;29.92;;;13.55;;
24799;SDS011;12897;50.812;4.430;2023-02-04T08:26:03;27.17;;;13.17;;
24799;SDS011;12897;50.812;4.430;2023-02-04T08:28:31;31.55;;;13.72;;
24799;SDS011;12897;50.812;4.430;2023-02-04T08:30:58;19.92;;;10.85;;
24799;SDS011;12897;50.812;4.430;2023-02-04T08:33:26;22.67;;;11.15;;
24799;SDS011;12897;50.812;4.430;2023-02-04T08:35:53;19.45;;;9.40;;
24799;SDS011;12897;50.812;4.430;2023-02-04T08:38:21;19.70;;;10.23;;
24799;SDS011;12897;50.812;4.430;2023-02-04T08:40:48;19.67;;;11.03;;
24799;SDS011;12897;50.812;4.430;2023-02-04T08:43:16;20.68;;;11.70;;
24799;SDS011;12897;50.812;4.430;2023-02-04T08:45:43;21.82;;;11.15;;
24799;SDS011;12897;50.812;4.430;2023-02-04T08:48:11;23.45;;;12.13;;
24799;SDS011;12897;50.812;4.430;2023-02-04T08:50:43;25.13;;;12.80;;
24799;SDS011;12897;50.812;4.430;2023-02-04T08:53:12;19.40;;;11.08;;
24799;SDS011;12897;50.812;4.430;2023-02-04T08:55:46;22.67;;;12.03;;
24799;SDS011;12897;50.812;4.430;2023-02-04T08:58:10;19.07;;;11.27;;
24799;SDS011;12897;50.812;4.430;2023-02-04T09:00:39;21.97;;;12.47;;
24799;SDS011;12897;50.812;4.430;2023-02-04T09:03:09;14.45;;;8.55;;
24799;SDS011;12897;50.812;4.430;2023-02-04T09:05:36;19.98;;;9.63;;
24799;SDS011;12897;50.812;4.430;2023-02-04T09:08:05;13.80;;;7.97;;
24799;SDS011;12897;50.812;4.430;2023-02-04T09:10:33;16.60;;;8.30;;
24799;SDS011;12897;50.812;4.430;2023-02-04T09:13:00;20.65;;;8.38;;
24799;SDS011;12897;50.812;4.430;2023-02-04T09:15:28;13.53;;;5.97;;
24799;SDS011;12897;50.812;4.430;2023-02-04T09:17:55;12.80;;;5.20;;
24799;SDS011;12897;50.812;4.430;2023-02-04T09:20:25;10.60;;;4.80;;
24799;SDS011;12897;50.812;4.430;2023-02-04T09:22:54;10.58;;;3.00;;
24799;SDS011;12897;50.812;4.430;2023-02-04T09:25:21;8.80;;;2.55;;
24799;SDS011;12897;50.812;4.430;2023-02-04T09:27:58;11.53;;;2.92;;
24799;SDS011;12897;50.812;4.430;2023-02-04T09:30:22;10.98;;;2.72;;
24799;SDS011;12897;50.812;4.430;2023-02-04T09:32:49;11.38;;;2.37;;
24799;SDS011;12897;50.812;4.430;2023-02-04T09:37:47;20.25;;;10.53;;
24799;SDS011;12897;50.812;4.430;2023-02-04T09:40:21;10.93;;;2.92;;
24799;SDS011;12897;50.812;4.430;2023-02-04T09:42:47;10.63;;;2.92;;
24799;SDS011;12897;50.812;4.430;2023-02-04T09:45:17;6.70;;;2.02;;
24799;SDS011;12897;50.812;4.430;2023-02-04T09:47:53;9.15;;;2.70;;
24799;SDS011;12897;50.812;4.430;2023-02-04T09:50:18;11.80;;;2.52;;
24799;SDS011;12897;50.812;4.430;2023-02-04T09:52:49;12.75;;;2.87;;
24799;SDS011;12897;50.812;4.430;2023-02-04T09:55:19;9.53;;;3.25;;
24799;SDS011;12897;50.812;4.430;2023-02-04T09:57:49;6.75;;;2.60;;
24799;SDS011;12897;50.812;4.430;2023-02-04T10:00:18;11.18;;;2.72;;
24799;SDS011;12897;50.812;4.430;2023-02-04T10:02:47;8.45;;;2.90;;
24799;SDS011;12897;50.812;4.430;2023-02-04T10:05:16;6.72;;;2.85;;
24799;SDS011;12897;50.812;4.430;2023-02-04T10:07:46;8.05;;;2.80;;
24799;SDS011;12897;50.812;4.430;2023-02-04T10:10:19;6.60;;;2.60;;
24799;SDS011;12897;50.812;4.430;2023-02-04T10:12:50;5.45;;;2.60;;
24799;SDS011;12897;50.812;4.430;2023-02-04T10:15:20;6.62;;;2.30;;
24799;SDS011;12897;50.812;4.430;2023-02-04T10:17:50;4.72;;;2.30;;
24799;SDS011;12897;50.812;4.430;2023-02-04T10:20:20;6.62;;;2.60;;
24799;SDS011;12897;50.812;4.430;2023-02-04T10:22:50;7.45;;;2.65;;
24799;SDS011;12897;50.812;4.430;2023-02-04T10:25:20;7.30;;;2.50;;
24799;SDS011;12897;50.812;4.430;2023-02-04T10:27:54;6.00;;;2.40;;
24799;SDS011;12897;50.812;4.430;2023-02-04T10:30:21;6.08;;;2.62;;
24799;SDS011;12897;50.812;4.430;2023-02-04T10:32:54;4.00;;;2.40;;
24799;SDS011;12897;50.812;4.430;2023-02-04T10:35:21;6.10;;;2.02;;
24799;SDS011;12897;50.812;4.430;2023-02-04T10:38:02;3.25;;;2.08;;
24799;SDS011;12897;50.812;4.430;2023-02-04T10:40:32;3.65;;;1.70;;
24799;SDS011;12897;50.812;4.430;2023-02-04T10:43:15;4.15;;;2.00;;
24799;SDS011;12897;50.812;4.430;2023-02-04T10:45:38;5.35;;;1.70;;
24799;SDS011;12897;50.812;4.430;2023-02-04T10:48:13;5.20;;;2.47;;
24799;SDS011;12897;50.812;4.430;2023-02-04T10:50:41;2.98;;;2.45;;
24799;SDS011;12897;50.812;4.430;2023-02-04T10:53:09;5.28;;;2.92;;
24799;SDS011;12897;50.812;4.430;2023-02-04T10:55:57;3.87;;;2.45;;
24799;SDS011;12897;50.812;4.430;2023-02-04T10:58:29;3.20;;;2.10;;
24799;SDS011;12897;50.812;4.430;2023-02-04T11:00:57;3.42;;;2.00;;
24799;SDS011;12897;50.812;4.430;2023-02-04T11:03:25;6.12;;;2.42;;
24799;SDS011;12897;50.812;4.430;2023-02-04T11:05:57;6.62;;;2.02;;
24799;SDS011;12897;50.812;4.430;2023-02-04T11:08:32;7.10;;;1.55;;
24799;SDS011;12897;50.812;4.430;2023-02-04T11:13:42;4.50;;;2.35;;
24799;SDS011;12897;50.812;4.430;2023-02-04T11:18:54;2.75;;;2.20;;
24799;SDS011;12897;50.812;4.430;2023-02-04T11:21:27;3.52;;;2.37;;
24799;SDS011;12897;50.812;4.430;2023-02-04T11:24:04;4.72;;;2.92;;
24799;SDS011;12897;50.812;4.430;2023-02-04T11:26:39;5.67;;;2.80;;
24799;SDS011;12897;50.812;4.430;2023-02-04T11:39:40;8.30;;;5.00;;
24799;SDS011;12897;50.812;4.430;2023-02-04T11:42:43;7.17;;;4.87;;
24799;SDS011;12897;50.812;4.430;2023-02-04T11:44:50;6.70;;;4.28;;
24799;SDS011;12897;50.812;4.430;2023-02-04T11:47:20;8.70;;;4.70;;
24799;SDS011;12897;50.812;4.430;2023-02-04T11:52:20;9.28;;;6.00;;
24799;SDS011;12897;50.812;4.430;2023-02-04T11:54:56;25.82;;;15.95;;
24799;SDS011;12897;50.812;4.430;2023-02-04T11:57:25;12.55;;;7.25;;
24799;SDS011;12897;50.812;4.430;2023-02-04T11:59:58;11.25;;;6.37;;
24799;SDS011;12897;50.812;4.430;2023-02-04T12:02:26;13.68;;;6.90;;
24799;SDS011;12897;50.812;4.430;2023-02-04T12:04:54;13.75;;;7.22;;
24799;SDS011;12897;50.812;4.430;2023-02-04T12:07:25;14.25;;;8.33;;
24799;SDS011;12897;50.812;4.430;2023-02-04T12:09:54;13.28;;;9.35;;
24799;SDS011;12897;50.812;4.430;2023-02-04T12:12:23;17.80;;;10.40;;
24799;SDS011;12897;50.812;4.430;2023-02-04T12:15:00;17.60;;;9.58;;
24799;SDS011;12897;50.812;4.430;2023-02-04T12:17:30;14.55;;;10.10;;
24799;SDS011;12897;50.812;4.430;2023-02-04T12:19:58;20.20;;;10.85;;
24799;SDS011;12897;50.812;4.430;2023-02-04T12:22:25;15.25;;;9.03;;
24799;SDS011;12897;50.812;4.430;2023-02-04T12:24:53;18.00;;;9.93;;
24799;SDS011;12897;50.812;4.430;2023-02-04T12:27:20;16.67;;;8.93;;
24799;SDS011;12897;50.812;4.430;2023-02-04T12:29:48;13.78;;;9.45;;
24799;SDS011;12897;50.812;4.430;2023-02-04T12:32:15;19.15;;;10.25;;
24799;SDS011;12897;50.812;4.430;2023-02-04T12:34:43;23.18;;;10.85;;
24799;SDS011;12897;50.812;4.430;2023-02-04T12:37:10;22.35;;;12.50;;
24799;SDS011;12897;50.812;4.430;2023-02-04T12:39:38;17.23;;;10.55;;
24799;SDS011;12897;50.812;4.430;2023-02-04T12:42:05;21.07;;;10.18;;
24799;SDS011;12897;50.812;4.430;2023-02-04T12:44:33;19.17;;;9.70;;
24799;SDS011;12897;50.812;4.430;2023-02-04T12:47:01;22.17;;;10.25;;
24799;SDS011;12897;50.812;4.430;2023-02-04T12:49:29;15.70;;;10.08;;
24799;SDS011;12897;50.812;4.430;2023-02-04T12:51:56;19.10;;;10.32;;
24799;SDS011;12897;50.812;4.430;2023-02-04T12:54:26;19.23;;;10.70;;
24799;SDS011;12897;50.812;4.430;2023-02-04T12:56:53;20.00;;;10.18;;
24799;SDS011;12897;50.812;4.430;2023-02-04T12:59:23;17.98;;;9.95;;
24799;SDS011;12897;50.812;4.430;2023-02-04T13:01:51;20.32;;;10.95;;
24799;SDS011;12897;50.812;4.430;2023-02-04T13:04:18;17.98;;;10.63;;
24799;SDS011;12897;50.812;4.430;2023-02-04T13:06:46;19.80;;;10.28;;
24799;SDS011;12897;50.812;4.430;2023-02-04T13:09:14;22.58;;;10.55;;
24799;SDS011;12897;50.812;4.430;2023-02-04T13:11:41;21.07;;;11.33;;
24799;SDS011;12897;50.812;4.430;2023-02-04T13:14:09;20.85;;;9.85;;
24799;SDS011;12897;50.812;4.430;2023-02-04T13:16:36;21.00;;;11.70;;
24799;SDS011;12897;50.812;4.430;2023-02-04T13:19:04;23.12;;;10.32;;
24799;SDS011;12897;50.812;4.430;2023-02-04T13:21:31;18.25;;;10.13;;
24799;SDS011;12897;50.812;4.430;2023-02-04T13:23:59;19.20;;;10.88;;
24799;SDS011;12897;50.812;4.430;2023-02-04T13:26:26;21.12;;;11.40;;
24799;SDS011;12897;50.812;4.430;2023-02-04T13:28:54;22.48;;;11.88;;
24799;SDS011;12897;50.812;4.430;2023-02-04T13:31:21;22.77;;;11.53;;
24799;SDS011;12897;50.812;4.430;2023-02-04T13:33:49;27.30;;;12.98;;
24799;SDS011;12897;50.812;4.430;2023-02-04T13:36:16;23.55;;;12.47;;
24799;SDS011;12897;50.812;4.430;2023-02-04T13:38:44;24.72;;;13.05;;
24799;SDS011;12897;50.812;4.430;2023-02-04T13:41:16;30.10;;;13.70;;
24799;SDS011;12897;50.812;4.430;2023-02-04T13:43:40;23.30;;;12.78;;
24799;SDS011;12897;50.812;4.430;2023-02-04T13:46:08;24.02;;;12.93;;
24799;SDS011;12897;50.812;4.430;2023-02-04T13:48:35;27.00;;;15.00;;
24799;SDS011;12897;50.812;4.430;2023-02-04T13:51:03;28.85;;;15.43;;
24799;SDS011;12897;50.812;4.430;2023-02-04T13:53:31;26.10;;;14.60;;
24799;SDS011;12897;50.812;4.430;2023-02-04T13:55:58;26.23;;;13.32;;
24799;SDS011;12897;50.812;4.430;2023-02-04T13:58:26;28.60;;;15.23;;
24799;SDS011;12897;50.812;4.430;2023-02-04T14:00:53;28.02;;;14.53;;
24799;SDS011;12897;50.812;4.430;2023-02-04T14:03:27;24.00;;;13.48;;
24799;SDS011;12897;50.812;4.430;2023-02-04T14:05:52;25.40;;;13.50;;
24799;SDS011;12897;50.812;4.430;2023-02-04T14:08:20;27.82;;;13.93;;
24799;SDS011;12897;50.812;4.430;2023-02-04T14:10:48;22.27;;;13.62;;
24799;SDS011;12897;50.812;4.430;2023-02-04T14:13:16;27.45;;;13.25;;
24799;SDS011;12897;50.812;4.430;2023-02-04T14:15:43;28.80;;;14.53;;
24799;SDS011;12897;50.812;4.430;2023-02-04T14:18:11;26.27;;;15.35;;
24799;SDS011;12897;50.812;4.430;2023-02-04T14:20:40;26.53;;;15.03;;
24799;SDS011;12897;50.812;4.430;2023-02-04T14:23:08;27.55;;;15.65;;
24799;SDS011;12897;50.812;4.430;2023-02-04T14:25:36;34.05;;;15.80;;
24799;SDS011;12897;50.812;4.430;2023-02-04T14:28:04;28.47;;;15.68;;
24799;SDS011;12897;50.812;4.430;2023-02-04T14:30:32;28.83;;;15.35;;
24799;SDS011;12897;50.812;4.430;2023-02-04T14:33:00;28.65;;;16.75;;
24799;SDS011;12897;50.812;4.430;2023-02-04T14:35:27;31.60;;;16.10;;
24799;SDS011;12897;50.812;4.430;2023-02-04T14:37:55;27.07;;;15.60;;
24799;SDS011;12897;50.812;4.430;2023-02-04T14:40:23;30.80;;;16.23;;
24799;SDS011;12897;50.812;4.430;2023-02-04T14:42:51;28.73;;;16.10;;
24799;SDS011;12897;50.812;4.430;2023-02-04T14:45:18;26.50;;;16.30;;
24799;SDS011;12897;50.812;4.430;2023-02-04T14:47:46;23.70;;;15.30;;
24799;SDS011;12897;50.812;4.430;2023-02-04T14:50:14;33.30;;;16.95;;
24799;SDS011;12897;50.812;4.430;2023-02-04T14:52:42;29.98;;;17.10;;
24799;SDS011;12897;50.812;4.430;2023-02-04T14:55:10;34.13;;;20.57;;
24799;SDS011;12897;50.812;4.430;2023-02-04T14:57:39;32.65;;;20.52;;
24799;SDS011;12897;50.812;4.430;2023-02-04T15:00:06;38.15;;;21.42;;
24799;SDS011;12897;50.812;4.430;2023-02-04T15:02:35;52.23;;;25.85;;